LECO/LCG METAR and TAF weather

Enter ICAO airport designator
Station Type Date Time Source
LECO METAR 2020/01/21 18:30 UTC NOAA

LECO 211830Z 09011G21KT 050V140 9999 SCT035 09/04 Q1026


Station Type Date Time Source
LECO Decoded METAR 2020/01/21 18:30 UTC NOAA

La Coruna / Alvedro, Spain (LECO) 43-18N 008-23W 103M
Jan 21, 2020 - 01:30 PM EST / 2020.01.21 1830 UTC
Wind: from the E (090 degrees) at 13 MPH (11 KT) gusting to 24 MPH (21 KT) (direction variable):0
Visibility: greater than 7 mile(s):0
Sky conditions: partly cloudy
Temperature: 48 F (9 C)
Dew Point: 39 F (4 C)
Relative Humidity: 70%
Pressure (altimeter): 30.30 in. Hg (1026 hPa)
ob: LECO 211830Z 09011G21KT 050V140 9999 SCT035 09/04 Q1026
cycle: 18

Station Type Date Time Source
LECO TAF 2020/01/21 15:27 UTC NOAA

TAF LECO 211400Z 2115/2215 05012KT 9999 BKN030 TX12/2212Z TN06/2205Z
TEMPO 2115/2206 05015G30KT
TEMPO 2212/2215 05015G25KT

Example: see airport list